Portada
METAR-TAF:

METAR-TAF

Aeroports :

East Jakarta, Indonèsia

latitud: 06-15-59S, longitud: 106-53-28E, altitud: 25 m

Observació

L'informe es va fer fa 34 minuts, a les 14:00 UTC
Vent 5 kt del Est/Sud-Est
Temperatura 29°C
Humitat 62%
Pressió 1009 hPa
Visibilitat: 6000 m
Escasses núvols a una alçada de 2000 ft

METAR: WIHH 141400Z 12005KT 6000 FEW020 29/21 Q1009 NOSIG

Hora: 21:34 (14:34 UTC)

Pronòstic

L'informe es va fer fa 3 hores i 34 minuts, a les 11:00 UTC
Pronòstic vàlid del 14 a les 12 UTC al 15 a les 12 UTC
Vent 10 kt del Est/Nord-Est
Visibilitat: 6000 m
Núvols disperses a una alçada de 2000 ft
Evolucionant progressivament
l' 14 a les 14 UTC al 14 a les 16 UTC
Vent 5 kt del Sud-Est
Visibilitat: 5000 m
calitja

TAF: WIHH 141100Z 1412/1512 07010KT 6000 SCT020 BECMG 1414/1416 14005KT 5000 HZ

Observacions i pronòstics meteorològics de més de 4000 aeroports (METAR i TAF).

Les estacions disponibles són els punts grocs i vermells al mapa.

Posi el ratolí al punt desitjat per veure el nom de l'estació.

Feu clic per veure les observacions i els pronòstics meteorològics.

Per canviar el mapa: feu clic els botons verds amb una creu de color negre per apropar; al botó verd amb un guió per allunyar la imatge; o en les fletxes verdes per a mapes adjacents.


METAR-TAF: